sensor_id;sensor_type;location;lat;lon;timestamp;pressure;altitude;pressure_sealevel;temperature;humidity
37304;BME280;23188;51.188;16.374;2023-09-08T00:07:45;100977.14;;;16.94;100.00
37304;BME280;23188;51.188;16.374;2023-09-08T00:12:00;100980.55;;;16.90;100.00
37304;BME280;23188;51.188;16.374;2023-09-08T00:16:04;100982.55;;;16.88;100.00
37304;BME280;23188;51.188;16.374;2023-09-08T00:20:07;100984.31;;;16.79;100.00
37304;BME280;23188;51.188;16.374;2023-09-08T00:24:13;100985.77;;;16.70;100.00
37304;BME280;23188;51.188;16.374;2023-09-08T00:28:16;100981.85;;;16.62;100.00
37304;BME280;23188;51.188;16.374;2023-09-08T00:32:18;100979.89;;;16.58;100.00
37304;BME280;23188;51.188;16.374;2023-09-08T00:40:58;100971.63;;;16.34;100.00
37304;BME280;23188;51.188;16.374;2023-09-08T00:45:04;100974.02;;;16.35;100.00
37304;BME280;23188;51.188;16.374;2023-09-08T00:49:13;100973.77;;;16.39;100.00
37304;BME280;23188;51.188;16.374;2023-09-08T00:53:21;100975.06;;;16.43;100.00
37304;BME280;23188;51.188;16.374;2023-09-08T00:57:45;100970.33;;;16.46;100.00
37304;BME280;23188;51.188;16.374;2023-09-08T01:01:56;100971.48;;;16.45;100.00
37304;BME280;23188;51.188;16.374;2023-09-08T01:06:01;100976.19;;;16.48;100.00
37304;BME280;23188;51.188;16.374;2023-09-08T01:10:09;100976.02;;;16.45;100.00
37304;BME280;23188;51.188;16.374;2023-09-08T01:14:13;100974.05;;;16.40;100.00
37304;BME280;23188;51.188;16.374;2023-09-08T01:18:17;100975.63;;;16.35;100.00
37304;BME280;23188;51.188;16.374;2023-09-08T01:22:23;100972.82;;;16.29;100.00
37304;BME280;23188;51.188;16.374;2023-09-08T01:26:35;100974.89;;;16.28;100.00
37304;BME280;23188;51.188;16.374;2023-09-08T01:30:43;100972.14;;;16.23;100.00
37304;BME280;23188;51.188;16.374;2023-09-08T01:34:49;100967.29;;;16.21;100.00
37304;BME280;23188;51.188;16.374;2023-09-08T01:38:56;100965.20;;;16.21;100.00
37304;BME280;23188;51.188;16.374;2023-09-08T01:43:03;100964.94;;;16.20;100.00
37304;BME280;23188;51.188;16.374;2023-09-08T01:47:10;100967.35;;;16.17;100.00
37304;BME280;23188;51.188;16.374;2023-09-08T01:51:14;100966.40;;;16.13;100.00
37304;BME280;23188;51.188;16.374;2023-09-08T01:55:20;100966.38;;;16.10;100.00
37304;BME280;23188;51.188;16.374;2023-09-08T01:59:25;100963.30;;;15.99;100.00
37304;BME280;23188;51.188;16.374;2023-09-08T02:03:29;100962.94;;;15.85;100.00
37304;BME280;23188;51.188;16.374;2023-09-08T02:07:46;100959.29;;;15.83;100.00
37304;BME280;23188;51.188;16.374;2023-09-08T02:11:50;100957.83;;;15.84;100.00
37304;BME280;23188;51.188;16.374;2023-09-08T02:15:57;100956.48;;;15.77;100.00
37304;BME280;23188;51.188;16.374;2023-09-08T02:20:02;100956.84;;;15.66;100.00
37304;BME280;23188;51.188;16.374;2023-09-08T02:24:07;100951.11;;;15.56;100.00
37304;BME280;23188;51.188;16.374;2023-09-08T02:28:12;100946.26;;;15.52;100.00
37304;BME280;23188;51.188;16.374;2023-09-08T02:32:16;100944.45;;;15.54;100.00
37304;BME280;23188;51.188;16.374;2023-09-08T02:36:20;100944.55;;;15.55;100.00
37304;BME280;23188;51.188;16.374;2023-09-08T02:40:45;100945.64;;;15.57;100.00
37304;BME280;23188;51.188;16.374;2023-09-08T02:44:50;100945.77;;;15.58;100.00
37304;BME280;23188;51.188;16.374;2023-09-08T02:48:56;100938.89;;;15.57;100.00
37304;BME280;23188;51.188;16.374;2023-09-08T02:53:07;100938.49;;;15.60;100.00
37304;BME280;23188;51.188;16.374;2023-09-08T02:57:12;100940.75;;;15.54;100.00
37304;BME280;23188;51.188;16.374;2023-09-08T03:01:19;100939.63;;;15.47;100.00
37304;BME280;23188;51.188;16.374;2023-09-08T03:05:24;100939.09;;;15.43;100.00
37304;BME280;23188;51.188;16.374;2023-09-08T03:09:35;100931.56;;;15.37;100.00
37304;BME280;23188;51.188;16.374;2023-09-08T03:13:39;100928.66;;;15.24;100.00
37304;BME280;23188;51.188;16.374;2023-09-08T03:17:43;100926.27;;;15.19;100.00
37304;BME280;23188;51.188;16.374;2023-09-08T03:21:52;100921.96;;;15.07;100.00
37304;BME280;23188;51.188;16.374;2023-09-08T03:25:59;100916.40;;;14.85;100.00
37304;BME280;23188;51.188;16.374;2023-09-08T03:30:13;100915.64;;;14.67;100.00
37304;BME280;23188;51.188;16.374;2023-09-08T03:34:17;100914.10;;;14.61;100.00
37304;BME280;23188;51.188;16.374;2023-09-08T03:38:24;100916.00;;;14.65;100.00
37304;BME280;23188;51.188;16.374;2023-09-08T03:42:27;100917.66;;;14.67;100.00
37304;BME280;23188;51.188;16.374;2023-09-08T03:46:32;100917.39;;;14.70;100.00
37304;BME280;23188;51.188;16.374;2023-09-08T03:50:35;100917.89;;;14.79;100.00
37304;BME280;23188;51.188;16.374;2023-09-08T03:54:41;100917.57;;;14.84;100.00
37304;BME280;23188;51.188;16.374;2023-09-08T03:58:44;100922.92;;;14.86;100.00
37304;BME280;23188;51.188;16.374;2023-09-08T04:02:49;100920.68;;;14.75;100.00
37304;BME280;23188;51.188;16.374;2023-09-08T04:06:53;100923.98;;;14.52;100.00
37304;BME280;23188;51.188;16.374;2023-09-08T04:10:57;100922.85;;;14.42;100.00
37304;BME280;23188;51.188;16.374;2023-09-08T04:15:00;100920.99;;;14.43;100.00
37304;BME280;23188;51.188;16.374;2023-09-08T04:19:04;100925.31;;;14.40;100.00
37304;BME280;23188;51.188;16.374;2023-09-08T04:23:10;100921.35;;;14.45;100.00
37304;BME280;23188;51.188;16.374;2023-09-08T04:27:17;100921.20;;;14.53;100.00
37304;BME280;23188;51.188;16.374;2023-09-08T04:31:24;100927.73;;;14.58;100.00
37304;BME280;23188;51.188;16.374;2023-09-08T04:35:30;100929.38;;;14.62;100.00
37304;BME280;23188;51.188;16.374;2023-09-08T04:39:35;100925.63;;;14.63;100.00
37304;BME280;23188;51.188;16.374;2023-09-08T04:43:40;100926.41;;;14.63;100.00
37304;BME280;23188;51.188;16.374;2023-09-08T04:47:43;100926.58;;;14.91;100.00
37304;BME280;23188;51.188;16.374;2023-09-08T04:51:47;100923.80;;;15.51;100.00
37304;BME280;23188;51.188;16.374;2023-09-08T04:55:51;100912.17;;;16.08;100.00
37304;BME280;23188;51.188;16.374;2023-09-08T04:59:54;100915.21;;;16.57;100.00
37304;BME280;23188;51.188;16.374;2023-09-08T05:03:59;100918.98;;;17.14;100.00
37304;BME280;23188;51.188;16.374;2023-09-08T05:08:03;100919.73;;;17.81;100.00
37304;BME280;23188;51.188;16.374;2023-09-08T05:12:07;100911.88;;;18.51;100.00
37304;BME280;23188;51.188;16.374;2023-09-08T05:16:11;100909.80;;;19.18;100.00
37304;BME280;23188;51.188;16.374;2023-09-08T05:20:15;100908.93;;;19.72;99.95
37304;BME280;23188;51.188;16.374;2023-09-08T05:24:19;100902.79;;;20.23;99.99
37304;BME280;23188;51.188;16.374;2023-09-08T05:28:24;100909.20;;;20.68;96.27
37304;BME280;23188;51.188;16.374;2023-09-08T05:32:28;100912.13;;;21.00;93.81
37304;BME280;23188;51.188;16.374;2023-09-08T05:36:33;100914.79;;;21.33;91.20
37304;BME280;23188;51.188;16.374;2023-09-08T05:40:39;100914.78;;;21.60;89.08
37304;BME280;23188;51.188;16.374;2023-09-08T05:44:43;100918.38;;;21.67;86.19
37304;BME280;23188;51.188;16.374;2023-09-08T05:48:53;100913.92;;;21.75;86.89
37304;BME280;23188;51.188;16.374;2023-09-08T05:52:57;100910.16;;;21.92;86.25
37304;BME280;23188;51.188;16.374;2023-09-08T05:57:03;100909.13;;;21.96;85.64
37304;BME280;23188;51.188;16.374;2023-09-08T06:01:08;100911.02;;;22.06;87.35
37304;BME280;23188;51.188;16.374;2023-09-08T06:05:12;100911.08;;;22.13;86.67
37304;BME280;23188;51.188;16.374;2023-09-08T06:09:18;100913.67;;;22.03;86.28
37304;BME280;23188;51.188;16.374;2023-09-08T06:13:23;100915.05;;;21.95;87.74
37304;BME280;23188;51.188;16.374;2023-09-08T06:17:30;100911.15;;;21.88;89.61
37304;BME280;23188;51.188;16.374;2023-09-08T06:21:34;100910.32;;;21.83;90.20
37304;BME280;23188;51.188;16.374;2023-09-08T06:25:44;100911.45;;;21.58;91.07
37304;BME280;23188;51.188;16.374;2023-09-08T06:29:48;100910.29;;;21.40;92.47
37304;BME280;23188;51.188;16.374;2023-09-08T06:33:55;100908.21;;;21.34;93.65
37304;BME280;23188;51.188;16.374;2023-09-08T06:38:00;100912.27;;;21.37;94.43
37304;BME280;23188;51.188;16.374;2023-09-08T06:42:04;100912.54;;;21.56;95.47
37304;BME280;23188;51.188;16.374;2023-09-08T06:46:08;100914.80;;;21.36;96.03
37304;BME280;23188;51.188;16.374;2023-09-08T06:50:25;100917.30;;;21.02;97.91
37304;BME280;23188;51.188;16.374;2023-09-08T06:54:31;100913.49;;;20.89;99.07
37304;BME280;23188;51.188;16.374;2023-09-08T06:58:37;100911.28;;;20.85;99.90
37304;BME280;23188;51.188;16.374;2023-09-08T07:02:42;100910.89;;;21.03;99.98
37304;BME280;23188;51.188;16.374;2023-09-08T07:06:50;100909.88;;;21.25;99.06
37304;BME280;23188;51.188;16.374;2023-09-08T07:10:58;100911.77;;;21.41;98.00
37304;BME280;23188;51.188;16.374;2023-09-08T07:15:04;100913.13;;;21.62;97.21
37304;BME280;23188;51.188;16.374;2023-09-08T07:19:19;100911.66;;;21.78;96.68
37304;BME280;23188;51.188;16.374;2023-09-08T07:23:24;100908.30;;;21.98;96.15
37304;BME280;23188;51.188;16.374;2023-09-08T07:27:30;100908.90;;;22.08;94.63
37304;BME280;23188;51.188;16.374;2023-09-08T07:31:37;100905.48;;;22.22;93.82
37304;BME280;23188;51.188;16.374;2023-09-08T07:35:47;100902.85;;;22.24;95.35
37304;BME280;23188;51.188;16.374;2023-09-08T07:40:01;100906.75;;;22.38;95.88
37304;BME280;23188;51.188;16.374;2023-09-08T07:44:07;100909.14;;;22.65;93.45
37304;BME280;23188;51.188;16.374;2023-09-08T07:48:12;100911.49;;;22.81;92.11
37304;BME280;23188;51.188;16.374;2023-09-08T07:52:17;100919.55;;;22.97;92.06
37304;BME280;23188;51.188;16.374;2023-09-08T07:56:21;100917.65;;;23.07;90.60
37304;BME280;23188;51.188;16.374;2023-09-08T08:00:27;100918.66;;;23.19;90.59
37304;BME280;23188;51.188;16.374;2023-09-08T08:04:38;100916.51;;;23.38;91.02
37304;BME280;23188;51.188;16.374;2023-09-08T08:08:46;100913.34;;;23.60;89.34
37304;BME280;23188;51.188;16.374;2023-09-08T08:12:52;100910.52;;;23.70;89.42
37304;BME280;23188;51.188;16.374;2023-09-08T08:16:57;100907.52;;;23.82;87.08
37304;BME280;23188;51.188;16.374;2023-09-08T08:21:08;100901.20;;;23.92;88.01
37304;BME280;23188;51.188;16.374;2023-09-08T08:30:02;100892.78;;;24.15;85.74
37304;BME280;23188;51.188;16.374;2023-09-08T08:34:05;100892.45;;;24.25;85.07
37304;BME280;23188;51.188;16.374;2023-09-08T08:42:39;100886.66;;;24.43;83.94
37304;BME280;23188;51.188;16.374;2023-09-08T08:46:42;100881.16;;;24.48;84.20
37304;BME280;23188;51.188;16.374;2023-09-08T08:50:47;100879.48;;;24.56;83.47
37304;BME280;23188;51.188;16.374;2023-09-08T08:54:50;100878.55;;;24.55;83.97
37304;BME280;23188;51.188;16.374;2023-09-08T08:58:53;100878.29;;;24.65;82.98
37304;BME280;23188;51.188;16.374;2023-09-08T09:02:59;100874.33;;;24.66;83.62
37304;BME280;23188;51.188;16.374;2023-09-08T09:07:18;100875.88;;;24.82;84.76
37304;BME280;23188;51.188;16.374;2023-09-08T09:11:21;100871.39;;;24.95;84.02
37304;BME280;23188;51.188;16.374;2023-09-08T09:15:30;100870.31;;;25.08;82.83
37304;BME280;23188;51.188;16.374;2023-09-08T09:19:36;100871.91;;;25.32;84.67
37304;BME280;23188;51.188;16.374;2023-09-08T09:23:39;100870.31;;;25.45;82.68
37304;BME280;23188;51.188;16.374;2023-09-08T09:27:42;100867.95;;;25.49;79.65
37304;BME280;23188;51.188;16.374;2023-09-08T09:31:54;100863.67;;;25.47;81.75
37304;BME280;23188;51.188;16.374;2023-09-08T09:35:57;100866.05;;;25.62;81.57
37304;BME280;23188;51.188;16.374;2023-09-08T09:40:02;100863.60;;;25.73;80.38
37304;BME280;23188;51.188;16.374;2023-09-08T09:44:08;100857.85;;;25.88;80.03
37304;BME280;23188;51.188;16.374;2023-09-08T09:48:11;100852.97;;;25.97;77.56
37304;BME280;23188;51.188;16.374;2023-09-08T09:52:20;100853.40;;;25.96;77.37
37304;BME280;23188;51.188;16.374;2023-09-08T09:56:49;100849.45;;;26.00;78.12
37304;BME280;23188;51.188;16.374;2023-09-08T10:00:54;100842.66;;;26.11;78.55
37304;BME280;23188;51.188;16.374;2023-09-08T10:04:57;100835.91;;;26.21;75.88
37304;BME280;23188;51.188;16.374;2023-09-08T10:09:12;100833.44;;;26.31;76.57
37304;BME280;23188;51.188;16.374;2023-09-08T10:13:18;100830.35;;;26.44;75.87
37304;BME280;23188;51.188;16.374;2023-09-08T10:17:25;100826.60;;;26.60;75.69
37304;BME280;23188;51.188;16.374;2023-09-08T10:21:32;100827.44;;;26.74;73.75
37304;BME280;23188;51.188;16.374;2023-09-08T10:25:41;100825.05;;;26.81;72.17
37304;BME280;23188;51.188;16.374;2023-09-08T10:29:44;100823.17;;;26.80;71.12
37304;BME280;23188;51.188;16.374;2023-09-08T10:33:48;100820.86;;;26.87;71.28
37304;BME280;23188;51.188;16.374;2023-09-08T10:37:52;100817.86;;;26.85;70.88
37304;BME280;23188;51.188;16.374;2023-09-08T10:44:14;100809.24;;;27.04;71.42
37304;BME280;23188;51.188;16.374;2023-09-08T10:48:48;100806.92;;;27.09;70.37
37304;BME280;23188;51.188;16.374;2023-09-08T10:58:01;100804.03;;;27.22;70.46
37304;BME280;23188;51.188;16.374;2023-09-08T11:02:06;100799.43;;;27.37;68.47
37304;BME280;23188;51.188;16.374;2023-09-08T11:06:10;100790.13;;;27.47;67.89
37304;BME280;23188;51.188;16.374;2023-09-08T11:10:14;100789.90;;;27.45;65.91
37304;BME280;23188;51.188;16.374;2023-09-08T11:14:17;100791.93;;;27.54;67.34
37304;BME280;23188;51.188;16.374;2023-09-08T11:18:27;100789.20;;;27.53;66.83
37304;BME280;23188;51.188;16.374;2023-09-08T11:22:31;100786.80;;;27.67;66.02
37304;BME280;23188;51.188;16.374;2023-09-08T11:26:35;100786.86;;;27.90;64.65
37304;BME280;23188;51.188;16.374;2023-09-08T11:30:41;100782.77;;;28.08;63.67
37304;BME280;23188;51.188;16.374;2023-09-08T11:34:45;100779.96;;;28.24;63.02
37304;BME280;23188;51.188;16.374;2023-09-08T11:38:48;100775.67;;;28.47;61.96
37304;BME280;23188;51.188;16.374;2023-09-08T11:42:53;100773.81;;;28.64;59.22
37304;BME280;23188;51.188;16.374;2023-09-08T11:46:56;100774.10;;;28.78;59.31
37304;BME280;23188;51.188;16.374;2023-09-08T11:51:00;100771.70;;;28.93;59.77
37304;BME280;23188;51.188;16.374;2023-09-08T11:55:04;100762.29;;;28.98;57.95
37304;BME280;23188;51.188;16.374;2023-09-08T11:59:09;100759.91;;;29.02;58.33
37304;BME280;23188;51.188;16.374;2023-09-08T12:03:14;100761.27;;;29.13;57.89
37304;BME280;23188;51.188;16.374;2023-09-08T12:07:20;100755.52;;;29.23;57.71
37304;BME280;23188;51.188;16.374;2023-09-08T12:11:24;100756.63;;;29.30;58.13
37304;BME280;23188;51.188;16.374;2023-09-08T12:19:37;100746.56;;;29.39;58.52
37304;BME280;23188;51.188;16.374;2023-09-08T12:23:50;100740.23;;;29.37;59.28
37304;BME280;23188;51.188;16.374;2023-09-08T12:27:54;100740.66;;;29.44;60.52
37304;BME280;23188;51.188;16.374;2023-09-08T12:31:59;100739.16;;;29.48;60.68
37304;BME280;23188;51.188;16.374;2023-09-08T12:36:15;100735.35;;;29.55;58.83
37304;BME280;23188;51.188;16.374;2023-09-08T12:40:20;100733.98;;;29.49;58.52
37304;BME280;23188;51.188;16.374;2023-09-08T12:44:24;100731.58;;;29.62;59.48
37304;BME280;23188;51.188;16.374;2023-09-08T12:48:28;100731.88;;;29.64;58.28
37304;BME280;23188;51.188;16.374;2023-09-08T12:52:31;100727.11;;;29.70;56.64
37304;BME280;23188;51.188;16.374;2023-09-08T12:56:35;100725.58;;;29.78;57.25
37304;BME280;23188;51.188;16.374;2023-09-08T13:00:38;100723.22;;;29.84;57.25
37304;BME280;23188;51.188;16.374;2023-09-08T13:04:41;100719.54;;;29.87;56.92
37304;BME280;23188;51.188;16.374;2023-09-08T13:08:44;100709.63;;;29.89;57.32
37304;BME280;23188;51.188;16.374;2023-09-08T13:12:48;100703.39;;;29.91;57.26
37304;BME280;23188;51.188;16.374;2023-09-08T13:16:54;100694.88;;;29.94;57.47
37304;BME280;23188;51.188;16.374;2023-09-08T13:20:58;100694.15;;;29.93;57.67
37304;BME280;23188;51.188;16.374;2023-09-08T13:25:01;100688.49;;;29.92;57.77
37304;BME280;23188;51.188;16.374;2023-09-08T13:29:05;100686.60;;;30.00;57.16
37304;BME280;23188;51.188;16.374;2023-09-08T13:33:08;100683.88;;;30.03;57.64
37304;BME280;23188;51.188;16.374;2023-09-08T13:37:12;100680.98;;;30.01;59.45
37304;BME280;23188;51.188;16.374;2023-09-08T13:41:18;100677.98;;;29.99;57.76
37304;BME280;23188;51.188;16.374;2023-09-08T13:45:21;100672.79;;;29.97;57.87
37304;BME280;23188;51.188;16.374;2023-09-08T13:49:27;100667.47;;;29.97;58.14
37304;BME280;23188;51.188;16.374;2023-09-08T13:53:33;100666.92;;;29.97;57.88
37304;BME280;23188;51.188;16.374;2023-09-08T13:57:48;100664.28;;;29.91;56.81
37304;BME280;23188;51.188;16.374;2023-09-08T14:01:53;100654.94;;;29.86;58.51
37304;BME280;23188;51.188;16.374;2023-09-08T14:06:17;100659.95;;;29.85;57.78
37304;BME280;23188;51.188;16.374;2023-09-08T14:10:26;100654.00;;;29.86;57.62
37304;BME280;23188;51.188;16.374;2023-09-08T14:14:43;100653.27;;;29.85;57.89
37304;BME280;23188;51.188;16.374;2023-09-08T14:18:46;100650.20;;;29.85;56.40
37304;BME280;23188;51.188;16.374;2023-09-08T14:22:50;100648.87;;;29.88;56.72
37304;BME280;23188;51.188;16.374;2023-09-08T14:26:53;100645.75;;;29.85;55.93
37304;BME280;23188;51.188;16.374;2023-09-08T14:30:57;100642.63;;;29.82;55.79
37304;BME280;23188;51.188;16.374;2023-09-08T14:35:01;100643.41;;;29.79;55.89
37304;BME280;23188;51.188;16.374;2023-09-08T14:39:04;100644.26;;;29.81;55.84
37304;BME280;23188;51.188;16.374;2023-09-08T14:43:08;100642.48;;;29.79;55.31
37304;BME280;23188;51.188;16.374;2023-09-08T14:47:11;100638.46;;;29.87;55.92
37304;BME280;23188;51.188;16.374;2023-09-08T14:51:16;100636.59;;;29.88;55.15
37304;BME280;23188;51.188;16.374;2023-09-08T14:55:20;100638.52;;;29.81;55.32
37304;BME280;23188;51.188;16.374;2023-09-08T14:59:23;100636.28;;;29.79;55.31
37304;BME280;23188;51.188;16.374;2023-09-08T15:03:27;100631.09;;;29.77;54.80
37304;BME280;23188;51.188;16.374;2023-09-08T15:07:30;100628.73;;;29.77;54.61
37304;BME280;23188;51.188;16.374;2023-09-08T15:11:36;100625.30;;;29.72;54.99
37304;BME280;23188;51.188;16.374;2023-09-08T15:15:41;100627.45;;;29.67;54.97
37304;BME280;23188;51.188;16.374;2023-09-08T15:19:44;100630.13;;;29.60;54.87
37304;BME280;23188;51.188;16.374;2023-09-08T15:23:48;100625.57;;;29.54;55.26
37304;BME280;23188;51.188;16.374;2023-09-08T15:27:51;100625.52;;;29.48;55.17
37304;BME280;23188;51.188;16.374;2023-09-08T15:31:56;100624.52;;;29.46;55.49
37304;BME280;23188;51.188;16.374;2023-09-08T15:35:59;100622.52;;;29.42;55.37
37304;BME280;23188;51.188;16.374;2023-09-08T15:40:03;100619.52;;;29.32;57.45
37304;BME280;23188;51.188;16.374;2023-09-08T15:44:07;100619.55;;;29.25;58.15
37304;BME280;23188;51.188;16.374;2023-09-08T15:48:10;100621.12;;;29.11;57.09
37304;BME280;23188;51.188;16.374;2023-09-08T15:52:14;100619.59;;;29.01;57.96
37304;BME280;23188;51.188;16.374;2023-09-08T15:56:19;100617.77;;;28.92;59.08
37304;BME280;23188;51.188;16.374;2023-09-08T16:00:22;100609.38;;;28.82;59.72
37304;BME280;23188;51.188;16.374;2023-09-08T16:04:26;100612.60;;;28.67;60.51
37304;BME280;23188;51.188;16.374;2023-09-08T16:08:30;100613.52;;;28.53;60.68
37304;BME280;23188;51.188;16.374;2023-09-08T16:12:38;100612.12;;;28.32;60.59
37304;BME280;23188;51.188;16.374;2023-09-08T16:16:41;100609.66;;;28.15;60.01
37304;BME280;23188;51.188;16.374;2023-09-08T16:20:45;100606.58;;;27.93;60.80
37304;BME280;23188;51.188;16.374;2023-09-08T16:24:48;100603.35;;;27.78;62.27
37304;BME280;23188;51.188;16.374;2023-09-08T16:28:52;100603.37;;;27.62;64.12
37304;BME280;23188;51.188;16.374;2023-09-08T16:32:55;100605.83;;;27.44;64.99
37304;BME280;23188;51.188;16.374;2023-09-08T16:36:59;100604.13;;;27.28;65.66
37304;BME280;23188;51.188;16.374;2023-09-08T16:41:02;100605.59;;;27.15;66.60
37304;BME280;23188;51.188;16.374;2023-09-08T16:45:06;100604.86;;;26.95;67.02
37304;BME280;23188;51.188;16.374;2023-09-08T16:49:09;100603.30;;;26.78;67.71
37304;BME280;23188;51.188;16.374;2023-09-08T16:53:13;100601.21;;;26.58;68.55
37304;BME280;23188;51.188;16.374;2023-09-08T16:57:16;100600.50;;;26.37;69.39
37304;BME280;23188;51.188;16.374;2023-09-08T17:01:23;100602.52;;;26.20;70.24
37304;BME280;23188;51.188;16.374;2023-09-08T17:05:28;100599.52;;;26.04;71.28
37304;BME280;23188;51.188;16.374;2023-09-08T17:09:31;100595.52;;;25.90;71.81
37304;BME280;23188;51.188;16.374;2023-09-08T17:13:35;100595.48;;;25.77;72.21
37304;BME280;23188;51.188;16.374;2023-09-08T17:17:39;100596.80;;;25.59;72.93
37304;BME280;23188;51.188;16.374;2023-09-08T17:21:45;100598.45;;;25.42;73.67
37304;BME280;23188;51.188;16.374;2023-09-08T17:25:49;100598.73;;;25.26;74.19
37304;BME280;23188;51.188;16.374;2023-09-08T17:29:53;100601.45;;;25.08;75.31
37304;BME280;23188;51.188;16.374;2023-09-08T17:33:57;100602.95;;;24.90;76.05
37304;BME280;23188;51.188;16.374;2023-09-08T17:38:00;100606.79;;;24.75;76.57
37304;BME280;23188;51.188;16.374;2023-09-08T17:42:03;100607.88;;;24.60;77.15
37304;BME280;23188;51.188;16.374;2023-09-08T17:46:06;100610.88;;;24.45;77.80
37304;BME280;23188;51.188;16.374;2023-09-08T17:50:10;100609.73;;;24.26;78.63
37304;BME280;23188;51.188;16.374;2023-09-08T17:54:13;100612.32;;;24.11;79.33
37304;BME280;23188;51.188;16.374;2023-09-08T17:58:16;100615.58;;;23.93;80.16
37304;BME280;23188;51.188;16.374;2023-09-08T18:02:19;100612.70;;;23.78;81.06
37304;BME280;23188;51.188;16.374;2023-09-08T18:06:23;100618.58;;;23.68;81.72
37304;BME280;23188;51.188;16.374;2023-09-08T18:10:27;100622.38;;;23.58;82.16
37304;BME280;23188;51.188;16.374;2023-09-08T18:14:30;100618.34;;;23.48;82.82
37304;BME280;23188;51.188;16.374;2023-09-08T18:18:33;100623.44;;;23.39;82.92
37304;BME280;23188;51.188;16.374;2023-09-08T18:22:37;100627.73;;;23.28;83.32
37304;BME280;23188;51.188;16.374;2023-09-08T18:26:40;100627.92;;;23.19;83.48
37304;BME280;23188;51.188;16.374;2023-09-08T18:30:46;100629.15;;;23.12;83.94
37304;BME280;23188;51.188;16.374;2023-09-08T18:34:53;100630.02;;;23.03;84.15
37304;BME280;23188;51.188;16.374;2023-09-08T18:38:57;100631.66;;;22.92;84.87
37304;BME280;23188;51.188;16.374;2023-09-08T18:43:02;100638.11;;;22.77;85.97
37304;BME280;23188;51.188;16.374;2023-09-08T18:47:06;100643.89;;;22.56;87.07
37304;BME280;23188;51.188;16.374;2023-09-08T18:51:09;100646.17;;;22.38;87.52
37304;BME280;23188;51.188;16.374;2023-09-08T18:55:15;100645.66;;;22.27;88.72
37304;BME280;23188;51.188;16.374;2023-09-08T18:59:22;100649.71;;;22.12;89.33
37304;BME280;23188;51.188;16.374;2023-09-08T19:03:25;100645.81;;;21.95;90.24
37304;BME280;23188;51.188;16.374;2023-09-08T19:07:31;100650.31;;;21.76;90.74
37304;BME280;23188;51.188;16.374;2023-09-08T19:11:36;100650.89;;;21.59;92.81
37304;BME280;23188;51.188;16.374;2023-09-08T19:15:40;100645.81;;;21.46;93.19
37304;BME280;23188;51.188;16.374;2023-09-08T19:19:44;100651.15;;;21.38;93.07
37304;BME280;23188;51.188;16.374;2023-09-08T19:23:47;100649.12;;;21.34;93.74
37304;BME280;23188;51.188;16.374;2023-09-08T19:27:55;100646.05;;;21.27;94.26
37304;BME280;23188;51.188;16.374;2023-09-08T19:32:06;100648.56;;;21.21;94.66
37304;BME280;23188;51.188;16.374;2023-09-08T19:36:09;100648.00;;;21.10;94.95
37304;BME280;23188;51.188;16.374;2023-09-08T19:40:13;100649.91;;;21.01;95.11
37304;BME280;23188;51.188;16.374;2023-09-08T19:44:16;100649.31;;;20.92;95.95
37304;BME280;23188;51.188;16.374;2023-09-08T19:48:19;100648.90;;;20.85;96.71
37304;BME280;23188;51.188;16.374;2023-09-08T19:52:23;100648.98;;;20.82;96.81
37304;BME280;23188;51.188;16.374;2023-09-08T19:56:31;100648.04;;;20.80;96.77
37304;BME280;23188;51.188;16.374;2023-09-08T20:00:34;100649.30;;;20.74;96.74
37304;BME280;23188;51.188;16.374;2023-09-08T20:04:43;100650.23;;;20.65;96.65
37304;BME280;23188;51.188;16.374;2023-09-08T20:08:49;100650.91;;;20.57;97.65
37304;BME280;23188;51.188;16.374;2023-09-08T20:12:53;100647.00;;;20.49;97.55
37304;BME280;23188;51.188;16.374;2023-09-08T20:16:59;100652.70;;;20.43;98.57
37304;BME280;23188;51.188;16.374;2023-09-08T20:21:03;100651.06;;;20.35;98.90
37304;BME280;23188;51.188;16.374;2023-09-08T20:25:08;100651.09;;;20.29;98.73
37304;BME280;23188;51.188;16.374;2023-09-08T20:29:12;100647.27;;;20.23;98.63
37304;BME280;23188;51.188;16.374;2023-09-08T20:33:15;100647.66;;;20.19;98.51
37304;BME280;23188;51.188;16.374;2023-09-08T20:37:20;100652.20;;;20.10;98.68
37304;BME280;23188;51.188;16.374;2023-09-08T20:41:23;100655.20;;;20.07;99.74
37304;BME280;23188;51.188;16.374;2023-09-08T20:45:26;100659.66;;;20.07;99.66
37304;BME280;23188;51.188;16.374;2023-09-08T20:49:29;100660.75;;;19.99;99.70
37304;BME280;23188;51.188;16.374;2023-09-08T20:53:33;100658.84;;;19.87;99.88
37304;BME280;23188;51.188;16.374;2023-09-08T20:57:39;100663.95;;;19.78;99.91
37304;BME280;23188;51.188;16.374;2023-09-08T21:01:42;100662.89;;;19.73;100.00
37304;BME280;23188;51.188;16.374;2023-09-08T21:05:45;100664.70;;;19.72;100.00
37304;BME280;23188;51.188;16.374;2023-09-08T21:09:48;100665.71;;;19.71;100.00
37304;BME280;23188;51.188;16.374;2023-09-08T21:13:51;100664.79;;;19.66;100.00
37304;BME280;23188;51.188;16.374;2023-09-08T21:17:54;100663.11;;;19.62;100.00
37304;BME280;23188;51.188;16.374;2023-09-08T21:21:57;100662.02;;;19.52;100.00
37304;BME280;23188;51.188;16.374;2023-09-08T21:26:03;100656.30;;;19.46;100.00
37304;BME280;23188;51.188;16.374;2023-09-08T21:30:07;100657.54;;;19.44;100.00
37304;BME280;23188;51.188;16.374;2023-09-08T21:34:10;100654.55;;;19.40;100.00